Aegean Orion — SVA2487 — position and weather

sailwx.info

Track history (hours):
 
Tides and Currents Weather Stations Pressure Air Temp Water Temp Dewpoint Dewpoint Depression Visibility Wind Speed Wind Dir Waves Ship Positions

Aegean Orion

Last reported at 2017-Jun-28 17:31 UTC. Time now 2017-Jun-28 17:37 UTC.
Position N 37°57' E 023°34'.

; draft 2.4 m.

Type: Ship. MMSI: 239550200.

Date/timePositionNaut miles runAvg speedWind from/ knotsBaromVisibWave heightAir tempDewpointWater temp
2017-Jun-28 17:31N 37°57' E 023°34'0 0.0
2017-Jun-28 17:00N 37°57' E 023°34'1 2.5
2017-Jun-28 16:30N 37°58' E 023°33'3 6.6
2017-Jun-28 16:00N 38°01' E 023°32'1 2.5
2017-Jun-28 15:30N 38°02' E 023°32'0 0.0
2017-Jun-28 15:00N 38°02' E 023°32'0 0.0
2017-Jun-28 14:00N 38°02' E 023°32'0 0.0
2017-Jun-28 13:30N 38°02' E 023°32'0 0.0
2017-Jun-28 13:00N 38°02' E 023°32'0 0.0
2017-Jun-28 12:30N 38°02' E 023°32'0 0.0
2017-Jun-28 12:00N 38°02' E 023°32'0 0.0
2017-Jun-28 11:30N 38°02' E 023°32'0 0.0
2017-Jun-28 11:00N 38°02' E 023°32'0 0.0
2017-Jun-28 10:30N 38°02' E 023°32'0 0.0
2017-Jun-28 10:00N 38°02' E 023°32'0 0.0
2017-Jun-28 09:30N 38°02' E 023°32'0 0.0
2017-Jun-28 09:00N 38°02' E 023°32'0 0.2
2017-Jun-28 08:31N 38°02' E 023°32'3 5.4
2017-Jun-28 08:00N 38°02' E 023°35'0 0.1
2017-Jun-28 07:30N 38°02' E 023°35'0 0.0
2017-Jun-28 07:00N 38°02' E 023°35'0 0.0
2017-Jun-28 06:30N 38°02' E 023°35'0 0.0
2017-Jun-28 06:00N 38°02' E 023°35'0 0.0
2017-Jun-28 05:30N 38°02' E 023°35'0 0.0
2017-Jun-28 05:00N 38°02' E 023°35'1 2.0
2017-Jun-28 04:30N 38°02' E 023°34'2 0.1
2017-Jun-27 15:24N 38°02' E 023°32'1 3.5
2017-Jun-27 15:01N 38°01' E 023°32'6 6.2
2017-Jun-27 14:00N 37°57' E 023°38'0 0.3
2017-Jun-27 13:30N 37°57' E 023°38'0 0.0
2017-Jun-27 13:00N 37°57' E 023°38'0 0.0
2017-Jun-27 12:30N 37°57' E 023°38'0 0.4
2017-Jun-27 12:00N 37°57' E 023°38'1 2.9
2017-Jun-27 11:30N 37°57' E 023°36'3 6.5
2017-Jun-27 11:00N 37°58' E 023°33'4 7.4
2017-Jun-27 10:31N 38°02' E 023°32'1 1.1
2017-Jun-27 10:00N 38°02' E 023°32'0 0.0
2017-Jun-27 09:30N 38°02' E 023°32'0 0.0
2017-Jun-27 09:00N 38°02' E 023°32'0 0.0
2017-Jun-27 08:30N 38°02' E 023°32'0 0.0
2017-Jun-27 08:00N 38°02' E 023°32'0 0.0
2017-Jun-26 20:14N 38°02' E 023°32'1 2.6
2017-Jun-26 20:00N 38°02' E 023°32'4 7.9
2017-Jun-26 19:30N 37°58' E 023°33'4 7.7
2017-Jun-26 19:00N 37°56' E 023°38'1 0.4
2017-Jun-26 16:54N 37°57' E 023°38'2 5.9
2017-Jun-26 16:31N 37°57' E 023°35'3 6.5
2017-Jun-26 16:00N 37°59' E 023°33'3 6.2
2017-Jun-26 15:31N 38°02' E 023°32'0 0.0
2017-Jun-26 15:00N 38°02' E 023°32'0 0.0
2017-Jun-26 14:00N 38°02' E 023°32'0 0.0
2017-Jun-26 13:30N 38°02' E 023°32'1 2.9
2017-Jun-26 13:00N 38°02' E 023°34'2 3.0
2017-Jun-26 12:31N 38°02' E 023°36'0 0.0
2017-Jun-26 12:00N 38°02' E 023°36'0 0.0
2017-Jun-26 11:30N 38°02' E 023°36'0 0.0
2017-Jun-26 11:00N 38°02' E 023°36'0 0.0
2017-Jun-26 10:30N 38°02' E 023°36'0 0.0
2017-Jun-26 10:00N 38°02' E 023°36'0 0.9
2017-Jun-26 09:30N 38°02' E 023°35'0 0.0
2017-Jun-26 09:00N 38°02' E 023°35'0 0.0
2017-Jun-26 08:30N 38°02' E 023°35'0 0.1
2017-Jun-26 08:00N 38°02' E 023°35'2 4.9
2017-Jun-26 07:31N 38°02' E 023°32'0 0.0
2017-Jun-26 07:01N 38°02' E 023°32'0 0.0
2017-Jun-26 06:30N 38°02' E 023°32'0 0.0
2017-Jun-26 06:00N 38°02' E 023°32'0 0.0
2017-Jun-26 05:30N 38°02' E 023°32'2 4.2
2017-Jun-26 05:01N 38°00' E 023°33'3 6.2
2017-Jun-26 04:31N 37°57' E 023°34'0 0.0
2017-Jun-26 04:01N 37°57' E 023°34'0 0.0
2017-Jun-26 03:31N 37°57' E 023°34'0 0.0
2017-Jun-26 03:00N 37°57' E 023°34'0 0.0
2017-Jun-26 02:31N 37°57' E 023°34'0 0.0
2017-Jun-26 02:01N 37°57' E 023°34'0 0.0
2017-Jun-26 01:30N 37°57' E 023°34'0 0.0
2017-Jun-26 01:00N 37°57' E 023°34'0 0.0
2017-Jun-26 00:30N 37°57' E 023°34'0 0.0
2017-Jun-26 00:01N 37°57' E 023°34'0 0.2
2017-Jun-25 23:30N 37°57' E 023°34'3 6.5
2017-Jun-25 23:00N 37°57' E 023°38'0 0.6
2017-Jun-25 22:30N 37°57' E 023°38'0 0.0
2017-Jun-25 22:01N 37°57' E 023°38'0 0.0
2017-Jun-25 21:31N 37°57' E 023°38'0 0.0
2017-Jun-25 21:01N 37°57' E 023°38'1 2.7
2017-Jun-25 20:31N 37°56' E 023°37'0 0.7
2017-Jun-25 20:01N 37°57' E 023°36'2 4.2
2017-Jun-25 19:30N 37°57' E 023°34'0 0.1
2017-Jun-25 19:00N 37°57' E 023°34'0 0.0
2017-Jun-25 18:30N 37°57' E 023°34'0 0.1
2017-Jun-25 18:01N 37°57' E 023°34'2 4.3
2017-Jun-25 17:30N 37°59' E 023°33'3 6.1
2017-Jun-25 17:00N 38°02' E 023°32'0 0.0
2017-Jun-25 16:30N 38°02' E 023°32'0 0.0
2017-Jun-25 16:00N 38°02' E 023°32'0 0.0
2017-Jun-24 21:55N 38°02' E 023°32'1 2.6
2017-Jun-24 21:30N 38°02' E 023°31'0 0.1
2017-Jun-24 21:00N 38°02' E 023°31'0 0.0
2017-Jun-24 20:30N 38°02' E 023°31'0 0.0
2017-Jun-24 20:00N 38°02' E 023°31'0 0.0
2017-Jun-24 19:31N 38°02' E 023°31'0 0.0
2017-Jun-24 19:00N 38°02' E 023°31'0 0.0
2017-Jun-24 18:30N 38°02' E 023°31'0 0.0
2017-Jun-24 18:00N 38°02' E 023°31'0 0.0
2017-Jun-24 17:31N 38°02' E 023°31'0 0.0
2017-Jun-24 17:00N 38°02' E 023°31'0 0.8
2017-Jun-24 16:30N 38°02' E 023°31'0 0.0
2017-Jun-24 16:00N 38°02' E 023°31'0 0.0
2017-Jun-24 15:30N 38°02' E 023°31'0 0.0
2017-Jun-24 15:00N 38°02' E 023°31'0 0.0
2017-Jun-24 14:00N 38°02' E 023°31'0 0.1
2017-Jun-24 13:30N 38°02' E 023°31'0 0.0
2017-Jun-24 13:01N 38°02' E 023°31'0 0.0
2017-Jun-24 12:30N 38°02' E 023°31'0 0.0
2017-Jun-24 12:00N 38°02' E 023°31'0 0.0
2017-Jun-24 11:30N 38°02' E 023°31'0 0.0
2017-Jun-24 11:00N 38°02' E 023°31'0 0.0
2017-Jun-24 10:30N 38°02' E 023°31'0 0.0
2017-Jun-24 10:00N 38°02' E 023°31'0 0.0
2017-Jun-24 09:30N 38°02' E 023°31'0 0.0
2017-Jun-24 09:01N 38°02' E 023°31'0 0.0
2017-Jun-24 08:30N 38°02' E 023°31'0 0.0
2017-Jun-24 08:00N 38°02' E 023°31'0 0.1
2017-Jun-24 07:30N 38°02' E 023°31'0 0.0
2017-Jun-24 07:00N 38°02' E 023°31'0 0.0
2017-Jun-24 06:30N 38°02' E 023°31'0 0.0
2017-Jun-24 06:00N 38°02' E 023°31'0 0.1
2017-Jun-24 05:30N 38°02' E 023°31'0 0.0
2017-Jun-24 05:00N 38°02' E 023°31'0 0.0
2017-Jun-24 04:30N 38°02' E 023°31'1 1.4
2017-Jun-24 04:01N 38°02' E 023°32'0 0.0
2017-Jun-22 15:03N 38°02' E 023°32'0 0.0
2017-Jun-22 15:01N 38°02' E 023°32'3 6.5
2017-Jun-22 14:30N 37°59' E 023°33'5 5.0
2017-Jun-22 13:30N 37°57' E 023°38'0 0.0
2017-Jun-22 13:00N 37°57' E 023°38'0 0.0
2017-Jun-22 12:30N 37°57' E 023°38'0 0.4
2017-Jun-22 12:00N 37°57' E 023°38'0 0.0
2017-Jun-22 11:30N 37°57' E 023°38'0 0.0
2017-Jun-22 11:00N 37°57' E 023°38'0 0.0
2017-Jun-22 10:30N 37°57' E 023°38'0 0.0
2017-Jun-22 10:00N 37°57' E 023°38'0 0.0
2017-Jun-22 09:30N 37°57' E 023°38'0 0.0
2017-Jun-22 09:00N 37°57' E 023°38'0 0.0
2017-Jun-22 08:30N 37°57' E 023°38'0 0.0
2017-Jun-22 08:00N 37°57' E 023°38'0 0.0
2017-Jun-22 07:30N 37°57' E 023°38'2 3.4
2017-Jun-22 07:00N 37°57' E 023°36'3 6.3
2017-Jun-22 06:30N 37°58' E 023°33'3 7.0
2017-Jun-22 06:00N 38°02' E 023°32'0 0.0
2017-Jun-21 19:01N 38°02' E 023°32'0 0.0
2017-Jun-21 19:00N 38°02' E 023°32'1 2.1
2017-Jun-21 18:30N 38°02' E 023°31'0 0.0
2017-Jun-21 18:00N 38°02' E 023°31'0 0.0
2017-Jun-21 17:30N 38°02' E 023°31'0 0.0
2017-Jun-21 17:00N 38°02' E 023°31'0 0.0
2017-Jun-21 16:30N 38°02' E 023°31'0 0.8
2017-Jun-21 16:01N 38°02' E 023°31'0 0.0
2017-Jun-21 15:30N 38°02' E 023°31'0 0.0
2017-Jun-21 15:00N 38°02' E 023°31'0 0.0
2017-Jun-21 14:30N 38°02' E 023°31'0 0.0
2017-Jun-21 13:31N 38°02' E 023°31'0 0.0
2017-Jun-21 13:00N 38°02' E 023°31'0 0.0
2017-Jun-21 12:30N 38°02' E 023°31'0 0.0
2017-Jun-21 12:00N 38°02' E 023°31'0 0.0
2017-Jun-21 11:30N 38°02' E 023°31'0 0.1
2017-Jun-21 11:00N 38°02' E 023°31'0 0.0
2017-Jun-21 10:30N 38°02' E 023°31'0 0.0
2017-Jun-21 10:00N 38°02' E 023°31'0 0.0
2017-Jun-21 09:30N 38°02' E 023°31'0 0.0
2017-Jun-21 09:00N 38°02' E 023°31'1 2.2
2017-Jun-21 08:30N 38°02' E 023°33'2 4.2
2017-Jun-21 07:59N 38°02' E 023°35'0 0.0
2017-Jun-21 07:24N 38°02' E 023°35'0 0.0
2017-Jun-21 06:59N 38°02' E 023°35'0 0.0
2017-Jun-21 06:30N 38°02' E 023°35'0 0.0
2017-Jun-21 06:00N 38°02' E 023°35'0 0.0
2017-Jun-21 05:30N 38°02' E 023°35'0 0.0
2017-Jun-21 05:00N 38°02' E 023°35'0 0.0
2017-Jun-21 04:30N 38°02' E 023°35'0 1.0
2017-Jun-21 04:00N 38°02' E 023°35'2 0.1
2017-Jun-20 11:04N 38°02' E 023°32'0 0.3
2017-Jun-20 11:01N 38°02' E 023°32'3 6.3
2017-Jun-20 10:30N 37°59' E 023°33'3 6.7
2017-Jun-20 10:01N 37°57' E 023°36'1 2.7
2017-Jun-20 09:30N 37°56' E 023°37'0 0.0
2017-Jun-20 07:54N 37°56' E 023°37'0 0.0
2017-Jun-20 07:29N 37°56' E 023°37'1 1.4
2017-Jun-20 07:01N 37°57' E 023°37'2 4.2
2017-Jun-20 06:30N 37°57' E 023°34'0 0.1
2017-Jun-20 06:01N 37°57' E 023°34'0 0.0
2017-Jun-20 05:31N 37°57' E 023°34'0 0.0
2017-Jun-20 05:00N 37°57' E 023°34'0 0.0
2017-Jun-20 04:31N 37°57' E 023°34'0 0.0
2017-Jun-20 04:01N 37°57' E 023°34'0 0.0
2017-Jun-20 03:31N 37°57' E 023°34'0 0.0
2017-Jun-20 03:00N 37°57' E 023°34'0 0.0
2017-Jun-20 02:31N 37°57' E 023°34'0 0.0
2017-Jun-20 02:00N 37°57' E 023°34'0 0.0
2017-Jun-20 01:30N 37°57' E 023°34'0 0.0
2017-Jun-20 01:00N 37°57' E 023°34'0 0.0
2017-Jun-20 00:31N 37°57' E 023°34'0 0.0
2017-Jun-20 00:00N 37°57' E 023°34'0 0.0
2017-Jun-19 23:31N 37°57' E 023°34'2 3.5
2017-Jun-19 23:01N 37°57' E 023°36'2 0.7
2017-Jun-19 20:36N 37°57' E 023°38'1 5.8
2017-Jun-19 20:30N 37°56' E 023°38'1 2.8
2017-Jun-19 20:01N 37°57' E 023°36'2 3.3
2017-Jun-19 19:31N 37°57' E 023°34'0 0.0
2017-Jun-19 19:01N 37°57' E 023°34'0 0.0
2017-Jun-19 18:30N 37°57' E 023°34'0 0.0
2017-Jun-19 18:01N 37°57' E 023°34'0 0.0
2017-Jun-19 17:30N 37°57' E 023°34'0 0.0
2017-Jun-19 17:01N 37°57' E 023°34'0 0.0
2017-Jun-19 16:30N 37°57' E 023°34'1 2.5
2017-Jun-19 16:01N 37°58' E 023°33'4 7.3
2017-Jun-19 15:30N 38°02' E 023°32'1 1.2
2017-Jun-19 15:00N 38°02' E 023°32'0 0.0
2017-Jun-19 14:01N 38°02' E 023°32'0 0.0
2017-Jun-19 13:31N 38°02' E 023°32'0 0.0
2017-Jun-19 13:01N 38°02' E 023°32'0 0.0
2017-Jun-19 12:31N 38°02' E 023°32'0 0.0
2017-Jun-19 12:01N 38°02' E 023°32'0 0.0
2017-Jun-19 11:30N 38°02' E 023°32'0 0.0
2017-Jun-19 11:00N 38°02' E 023°32'0 0.0
2017-Jun-19 10:31N 38°02' E 023°32'2 3.2
2017-Jun-19 10:00N 38°02' E 023°34'1 2.3
2017-Jun-19 09:30N 38°02' E 023°35'0 0.0
2017-Jun-19 09:01N 38°02' E 023°35'0 0.0
2017-Jun-19 08:31N 38°02' E 023°35'0 0.0
2017-Jun-19 07:59N 38°02' E 023°35'0 0.0
2017-Jun-19 07:31N 38°02' E 023°35'0 0.0
2017-Jun-19 07:00N 38°02' E 023°35'0 0.0
2017-Jun-19 06:31N 38°02' E 023°35'1 2.5
2017-Jun-19 06:01N 38°02' E 023°34'  
Track history (hours):
 
Tides and Currents Weather Stations Pressure Air Temp Water Temp Dewpoint Dewpoint Depression Visibility Wind Speed Wind Dir Waves Ship Positions

Aegean Orion

Last reported at 2017-Jun-28 17:31 UTC. Time now 2017-Jun-28 17:37 UTC.
Position N 37°57' E 023°34'.

; draft 2.4 m.

Type: Ship. MMSI: 239550200.

Date/timePositionNaut miles runAvg speedWind from/ knotsBaromVisibWave heightAir tempDewpointWater temp
2017-Jun-28 17:31N 37°57' E 023°34'0 0.0
2017-Jun-28 17:00N 37°57' E 023°34'1 2.5
2017-Jun-28 16:30N 37°58' E 023°33'3 6.6
2017-Jun-28 16:00N 38°01' E 023°32'1 2.5
2017-Jun-28 15:30N 38°02' E 023°32'0 0.0
2017-Jun-28 15:00N 38°02' E 023°32'0 0.0
2017-Jun-28 14:00N 38°02' E 023°32'0 0.0
2017-Jun-28 13:30N 38°02' E 023°32'0 0.0
2017-Jun-28 13:00N 38°02' E 023°32'0 0.0
2017-Jun-28 12:30N 38°02' E 023°32'0 0.0
2017-Jun-28 12:00N 38°02' E 023°32'0 0.0
2017-Jun-28 11:30N 38°02' E 023°32'0 0.0
2017-Jun-28 11:00N 38°02' E 023°32'0 0.0
2017-Jun-28 10:30N 38°02' E 023°32'0 0.0
2017-Jun-28 10:00N 38°02' E 023°32'0 0.0
2017-Jun-28 09:30N 38°02' E 023°32'0 0.0
2017-Jun-28 09:00N 38°02' E 023°32'0 0.2
2017-Jun-28 08:31N 38°02' E 023°32'3 5.4
2017-Jun-28 08:00N 38°02' E 023°35'0 0.1
2017-Jun-28 07:30N 38°02' E 023°35'0 0.0
2017-Jun-28 07:00N 38°02' E 023°35'0 0.0
2017-Jun-28 06:30N 38°02' E 023°35'0 0.0
2017-Jun-28 06:00N 38°02' E 023°35'0 0.0
2017-Jun-28 05:30N 38°02' E 023°35'0 0.0
2017-Jun-28 05:00N 38°02' E 023°35'1 2.0
2017-Jun-28 04:30N 38°02' E 023°34'2 0.1
2017-Jun-27 15:24N 38°02' E 023°32'1 3.5
2017-Jun-27 15:01N 38°01' E 023°32'6 6.2
2017-Jun-27 14:00N 37°57' E 023°38'0 0.3
2017-Jun-27 13:30N 37°57' E 023°38'0 0.0
2017-Jun-27 13:00N 37°57' E 023°38'0 0.0
2017-Jun-27 12:30N 37°57' E 023°38'0 0.4
2017-Jun-27 12:00N 37°57' E 023°38'1 2.9
2017-Jun-27 11:30N 37°57' E 023°36'3 6.5
2017-Jun-27 11:00N 37°58' E 023°33'4 7.4
2017-Jun-27 10:31N 38°02' E 023°32'1 1.1
2017-Jun-27 10:00N 38°02' E 023°32'0 0.0
2017-Jun-27 09:30N 38°02' E 023°32'0 0.0
2017-Jun-27 09:00N 38°02' E 023°32'0 0.0
2017-Jun-27 08:30N 38°02' E 023°32'0 0.0
2017-Jun-27 08:00N 38°02' E 023°32'0 0.0
2017-Jun-26 20:14N 38°02' E 023°32'1 2.6
2017-Jun-26 20:00N 38°02' E 023°32'4 7.9
2017-Jun-26 19:30N 37°58' E 023°33'4 7.7
2017-Jun-26 19:00N 37°56' E 023°38'1 0.4
2017-Jun-26 16:54N 37°57' E 023°38'2 5.9
2017-Jun-26 16:31N 37°57' E 023°35'3 6.5
2017-Jun-26 16:00N 37°59' E 023°33'3 6.2
2017-Jun-26 15:31N 38°02' E 023°32'0 0.0
2017-Jun-26 15:00N 38°02' E 023°32'0 0.0
2017-Jun-26 14:00N 38°02' E 023°32'0 0.0
2017-Jun-26 13:30N 38°02' E 023°32'1 2.9
2017-Jun-26 13:00N 38°02' E 023°34'2 3.0
2017-Jun-26 12:31N 38°02' E 023°36'0 0.0
2017-Jun-26 12:00N 38°02' E 023°36'0 0.0
2017-Jun-26 11:30N 38°02' E 023°36'0 0.0
2017-Jun-26 11:00N 38°02' E 023°36'0 0.0
2017-Jun-26 10:30N 38°02' E 023°36'0 0.0
2017-Jun-26 10:00N 38°02' E 023°36'0 0.9
2017-Jun-26 09:30N 38°02' E 023°35'0 0.0
2017-Jun-26 09:00N 38°02' E 023°35'0 0.0
2017-Jun-26 08:30N 38°02' E 023°35'0 0.1
2017-Jun-26 08:00N 38°02' E 023°35'2 4.9
2017-Jun-26 07:31N 38°02' E 023°32'0 0.0
2017-Jun-26 07:01N 38°02' E 023°32'0 0.0
2017-Jun-26 06:30N 38°02' E 023°32'0 0.0
2017-Jun-26 06:00N 38°02' E 023°32'0 0.0
2017-Jun-26 05:30N 38°02' E 023°32'2 4.2
2017-Jun-26 05:01N 38°00' E 023°33'3 6.2
2017-Jun-26 04:31N 37°57' E 023°34'0 0.0
2017-Jun-26 04:01N 37°57' E 023°34'0 0.0
2017-Jun-26 03:31N 37°57' E 023°34'0 0.0
2017-Jun-26 03:00N 37°57' E 023°34'0 0.0
2017-Jun-26 02:31N 37°57' E 023°34'0 0.0
2017-Jun-26 02:01N 37°57' E 023°34'0 0.0
2017-Jun-26 01:30N 37°57' E 023°34'0 0.0
2017-Jun-26 01:00N 37°57' E 023°34'0 0.0
2017-Jun-26 00:30N 37°57' E 023°34'0 0.0
2017-Jun-26 00:01N 37°57' E 023°34'0 0.2
2017-Jun-25 23:30N 37°57' E 023°34'3 6.5
2017-Jun-25 23:00N 37°57' E 023°38'0 0.6
2017-Jun-25 22:30N 37°57' E 023°38'0 0.0
2017-Jun-25 22:01N 37°57' E 023°38'0 0.0
2017-Jun-25 21:31N 37°57' E 023°38'0 0.0
2017-Jun-25 21:01N 37°57' E 023°38'1 2.7
2017-Jun-25 20:31N 37°56' E 023°37'0 0.7
2017-Jun-25 20:01N 37°57' E 023°36'2 4.2
2017-Jun-25 19:30N 37°57' E 023°34'0 0.1
2017-Jun-25 19:00N 37°57' E 023°34'0 0.0
2017-Jun-25 18:30N 37°57' E 023°34'0 0.1
2017-Jun-25 18:01N 37°57' E 023°34'2 4.3
2017-Jun-25 17:30N 37°59' E 023°33'3 6.1
2017-Jun-25 17:00N 38°02' E 023°32'0 0.0
2017-Jun-25 16:30N 38°02' E 023°32'0 0.0
2017-Jun-25 16:00N 38°02' E 023°32'0 0.0
2017-Jun-24 21:55N 38°02' E 023°32'1 2.6
2017-Jun-24 21:30N 38°02' E 023°31'0 0.1
2017-Jun-24 21:00N 38°02' E 023°31'0 0.0
2017-Jun-24 20:30N 38°02' E 023°31'0 0.0
2017-Jun-24 20:00N 38°02' E 023°31'0 0.0
2017-Jun-24 19:31N 38°02' E 023°31'0 0.0
2017-Jun-24 19:00N 38°02' E 023°31'0 0.0
2017-Jun-24 18:30N 38°02' E 023°31'0 0.0
2017-Jun-24 18:00N 38°02' E 023°31'0 0.0
2017-Jun-24 17:31N 38°02' E 023°31'0 0.0
2017-Jun-24 17:00N 38°02' E 023°31'0 0.8
2017-Jun-24 16:30N 38°02' E 023°31'0 0.0
2017-Jun-24 16:00N 38°02' E 023°31'0 0.0
2017-Jun-24 15:30N 38°02' E 023°31'0 0.0
2017-Jun-24 15:00N 38°02' E 023°31'0 0.0
2017-Jun-24 14:00N 38°02' E 023°31'0 0.1
2017-Jun-24 13:30N 38°02' E 023°31'0 0.0
2017-Jun-24 13:01N 38°02' E 023°31'0 0.0
2017-Jun-24 12:30N 38°02' E 023°31'0 0.0
2017-Jun-24 12:00N 38°02' E 023°31'0 0.0
2017-Jun-24 11:30N 38°02' E 023°31'0 0.0
2017-Jun-24 11:00N 38°02' E 023°31'0 0.0
2017-Jun-24 10:30N 38°02' E 023°31'0 0.0
2017-Jun-24 10:00N 38°02' E 023°31'0 0.0
2017-Jun-24 09:30N 38°02' E 023°31'0 0.0
2017-Jun-24 09:01N 38°02' E 023°31'0 0.0
2017-Jun-24 08:30N 38°02' E 023°31'0 0.0
2017-Jun-24 08:00N 38°02' E 023°31'0 0.1
2017-Jun-24 07:30N 38°02' E 023°31'0 0.0
2017-Jun-24 07:00N 38°02' E 023°31'0 0.0
2017-Jun-24 06:30N 38°02' E 023°31'0 0.0
2017-Jun-24 06:00N 38°02' E 023°31'0 0.1
2017-Jun-24 05:30N 38°02' E 023°31'0 0.0
2017-Jun-24 05:00N 38°02' E 023°31'0 0.0
2017-Jun-24 04:30N 38°02' E 023°31'1 1.4
2017-Jun-24 04:01N 38°02' E 023°32'0 0.0
2017-Jun-22 15:03N 38°02' E 023°32'0 0.0
2017-Jun-22 15:01N 38°02' E 023°32'3 6.5
2017-Jun-22 14:30N 37°59' E 023°33'5 5.0
2017-Jun-22 13:30N 37°57' E 023°38'0 0.0
2017-Jun-22 13:00N 37°57' E 023°38'0 0.0
2017-Jun-22 12:30N 37°57' E 023°38'0 0.4
2017-Jun-22 12:00N 37°57' E 023°38'0 0.0
2017-Jun-22 11:30N 37°57' E 023°38'0 0.0
2017-Jun-22 11:00N 37°57' E 023°38'0 0.0
2017-Jun-22 10:30N 37°57' E 023°38'0 0.0
2017-Jun-22 10:00N 37°57' E 023°38'0 0.0
2017-Jun-22 09:30N 37°57' E 023°38'0 0.0
2017-Jun-22 09:00N 37°57' E 023°38'0 0.0
2017-Jun-22 08:30N 37°57' E 023°38'0 0.0
2017-Jun-22 08:00N 37°57' E 023°38'0 0.0
2017-Jun-22 07:30N 37°57' E 023°38'2 3.4
2017-Jun-22 07:00N 37°57' E 023°36'3 6.3
2017-Jun-22 06:30N 37°58' E 023°33'3 7.0
2017-Jun-22 06:00N 38°02' E 023°32'0 0.0
2017-Jun-21 19:01N 38°02' E 023°32'0 0.0
2017-Jun-21 19:00N 38°02' E 023°32'1 2.1
2017-Jun-21 18:30N 38°02' E 023°31'0 0.0
2017-Jun-21 18:00N 38°02' E 023°31'0 0.0
2017-Jun-21 17:30N 38°02' E 023°31'0 0.0
2017-Jun-21 17:00N 38°02' E 023°31'0 0.0
2017-Jun-21 16:30N 38°02' E 023°31'0 0.8
2017-Jun-21 16:01N 38°02' E 023°31'0 0.0
2017-Jun-21 15:30N 38°02' E 023°31'0 0.0
2017-Jun-21 15:00N 38°02' E 023°31'0 0.0
2017-Jun-21 14:30N 38°02' E 023°31'0 0.0
2017-Jun-21 13:31N 38°02' E 023°31'0 0.0
2017-Jun-21 13:00N 38°02' E 023°31'0 0.0
2017-Jun-21 12:30N 38°02' E 023°31'0 0.0
2017-Jun-21 12:00N 38°02' E 023°31'0 0.0
2017-Jun-21 11:30N 38°02' E 023°31'0 0.1
2017-Jun-21 11:00N 38°02' E 023°31'0 0.0
2017-Jun-21 10:30N 38°02' E 023°31'0 0.0
2017-Jun-21 10:00N 38°02' E 023°31'0 0.0
2017-Jun-21 09:30N 38°02' E 023°31'0 0.0
2017-Jun-21 09:00N 38°02' E 023°31'1 2.2
2017-Jun-21 08:30N 38°02' E 023°33'2 4.2
2017-Jun-21 07:59N 38°02' E 023°35'0 0.0
2017-Jun-21 07:24N 38°02' E 023°35'0 0.0
2017-Jun-21 06:59N 38°02' E 023°35'0 0.0
2017-Jun-21 06:30N 38°02' E 023°35'0 0.0
2017-Jun-21 06:00N 38°02' E 023°35'0 0.0
2017-Jun-21 05:30N 38°02' E 023°35'0 0.0
2017-Jun-21 05:00N 38°02' E 023°35'0 0.0
2017-Jun-21 04:30N 38°02' E 023°35'0 1.0
2017-Jun-21 04:00N 38°02' E 023°35'2 0.1
2017-Jun-20 11:04N 38°02' E 023°32'0 0.3
2017-Jun-20 11:01N 38°02' E 023°32'3 6.3
2017-Jun-20 10:30N 37°59' E 023°33'3 6.7
2017-Jun-20 10:01N 37°57' E 023°36'1 2.7
2017-Jun-20 09:30N 37°56' E 023°37'0 0.0
2017-Jun-20 07:54N 37°56' E 023°37'0 0.0
2017-Jun-20 07:29N 37°56' E 023°37'1 1.4
2017-Jun-20 07:01N 37°57' E 023°37'2 4.2
2017-Jun-20 06:30N 37°57' E 023°34'0 0.1
2017-Jun-20 06:01N 37°57' E 023°34'0 0.0
2017-Jun-20 05:31N 37°57' E 023°34'0 0.0
2017-Jun-20 05:00N 37°57' E 023°34'0 0.0
2017-Jun-20 04:31N 37°57' E 023°34'0 0.0
2017-Jun-20 04:01N 37°57' E 023°34'0 0.0
2017-Jun-20 03:31N 37°57' E 023°34'0 0.0
2017-Jun-20 03:00N 37°57' E 023°34'0 0.0
2017-Jun-20 02:31N 37°57' E 023°34'0 0.0
2017-Jun-20 02:00N 37°57' E 023°34'0 0.0
2017-Jun-20 01:30N 37°57' E 023°34'0 0.0
2017-Jun-20 01:00N 37°57' E 023°34'0 0.0
2017-Jun-20 00:31N 37°57' E 023°34'0 0.0
2017-Jun-20 00:00N 37°57' E 023°34'0 0.0
2017-Jun-19 23:31N 37°57' E 023°34'2 3.5
2017-Jun-19 23:01N 37°57' E 023°36'2 0.7
2017-Jun-19 20:36N 37°57' E 023°38'1 5.8
2017-Jun-19 20:30N 37°56' E 023°38'1 2.8
2017-Jun-19 20:01N 37°57' E 023°36'2 3.3
2017-Jun-19 19:31N 37°57' E 023°34'0 0.0
2017-Jun-19 19:01N 37°57' E 023°34'0 0.0
2017-Jun-19 18:30N 37°57' E 023°34'0 0.0
2017-Jun-19 18:01N 37°57' E 023°34'0 0.0
2017-Jun-19 17:30N 37°57' E 023°34'0 0.0
2017-Jun-19 17:01N 37°57' E 023°34'0 0.0
2017-Jun-19 16:30N 37°57' E 023°34'1 2.5
2017-Jun-19 16:01N 37°58' E 023°33'4 7.3
2017-Jun-19 15:30N 38°02' E 023°32'1 1.2
2017-Jun-19 15:00N 38°02' E 023°32'0 0.0
2017-Jun-19 14:01N 38°02' E 023°32'0 0.0
2017-Jun-19 13:31N 38°02' E 023°32'0 0.0
2017-Jun-19 13:01N 38°02' E 023°32'0 0.0
2017-Jun-19 12:31N 38°02' E 023°32'0 0.0
2017-Jun-19 12:01N 38°02' E 023°32'0 0.0
2017-Jun-19 11:30N 38°02' E 023°32'0 0.0
2017-Jun-19 11:00N 38°02' E 023°32'0 0.0
2017-Jun-19 10:31N 38°02' E 023°32'2 3.2
2017-Jun-19 10:00N 38°02' E 023°34'1 2.3
2017-Jun-19 09:30N 38°02' E 023°35'0 0.0
2017-Jun-19 09:01N 38°02' E 023°35'0 0.0
2017-Jun-19 08:31N 38°02' E 023°35'0 0.0
2017-Jun-19 07:59N 38°02' E 023°35'0 0.0
2017-Jun-19 07:31N 38°02' E 023°35'0 0.0
2017-Jun-19 07:00N 38°02' E 023°35'0 0.0
2017-Jun-19 06:31N 38°02' E 023°35'1 2.5
2017-Jun-19 06:01N 38°02' E 023°34'  

Dump ship's entire track history